Terminal Aerodrome Forecast
Issued by NWS

Home | Current Version | Previous Version | Text Only | Print | Product List | Glossary On
Versions: 1 2 3 4 5 6 7 8 9 10 11 12 13 14 15 16 17
696
FTUS46 KSEW 130215 AAA
TAFPAE
TAF AMD
KPAE 130215Z 1302/1324 19016KT P6SM FEW030 BKN200
      TEMPO 1302/1304 19015G25KT
     FM130900 18011G18KT 5SM -SHRA BR SCT010 BKN018 OVC030
     FM131100 17010KT P6SM BKN018 OVC030
     FM132000 17015G24KT 6SM -RA BR SCT018 OVC030=

USA.gov is the U.S. government's official web portal to all federal, state and local government web resources and services.